Time;durP1;ratioP1;P1;durP2;ratioP2;P2;SDS_P1;SDS_P2;PMS_P1;PMS_P2;Temp;Humidity;BMP_temperature;BMP_pressure;BME280_temperature;BME280_humidity;BME280_pressure;Samples;Min_cycle;Max_cycle;Signal;HPM_P1;HPM_P2
2023/04/26 00:00:20;;;;;;;4.40;2.50;;;;;;;8.43;34.12;101487.75;5073206;28;20036;-79
2023/04/26 00:02:49;;;;;;;5.45;2.10;;;;;;;8.41;33.80;101487.00;5093927;28;20728;-79
2023/04/26 00:05:18;;;;;;;5.03;2.30;;;;;;;8.40;34.25;101487.13;5069990;28;20029;-79
2023/04/26 00:07:46;;;;;;;3.72;2.00;;;;;;;8.38;34.08;101486.34;5069915;28;20056;-79
2023/04/26 00:10:15;;;;;;;4.15;2.10;;;;;;;8.37;34.01;101488.19;5071967;28;20040;-78
2023/04/26 00:12:43;;;;;;;4.90;2.08;;;;;;;8.32;34.11;101483.06;5074051;28;20112;-78
2023/04/26 00:15:11;;;;;;;3.70;2.15;;;;;;;8.32;34.11;101488.50;5076869;28;20827;-78
2023/04/26 00:17:39;;;;;;;3.53;2.13;;;;;;;8.29;34.32;101485.97;5069743;28;20120;-80
2023/04/26 00:20:10;;;;;;;5.45;2.30;;;;;;;8.28;34.28;101486.97;5071006;28;20040;-78
2023/04/26 00:22:38;;;;;;;5.03;2.17;;;;;;;8.26;34.24;101483.44;5067483;28;20064;-78
2023/04/26 00:25:07;;;;;;;4.35;2.40;;;;;;;8.24;34.60;101479.97;5064541;28;20050;-77
2023/04/26 00:27:36;;;;;;;4.80;2.08;;;;;;;8.24;34.45;101479.97;5068856;28;20052;-80
2023/04/26 00:30:05;;;;;;;3.72;2.03;;;;;;;8.20;34.42;101472.97;5071324;28;20047;-79
2023/04/26 00:32:35;;;;;;;4.57;2.33;;;;;;;8.20;34.70;101472.09;5065029;28;20496;-79
2023/04/26 00:35:03;;;;;;;6.15;2.15;;;;;;;8.19;34.43;101473.94;5083977;28;20260;-78
2023/04/26 00:37:32;;;;;;;3.88;2.25;;;;;;;8.17;34.58;101470.47;5089964;28;20093;-79
2023/04/26 00:40:00;;;;;;;4.57;2.08;;;;;;;8.16;34.57;101462.41;5079490;28;20036;-79
2023/04/26 00:42:28;;;;;;;5.25;2.30;;;;;;;8.13;34.52;101466.19;5070427;28;20108;-79
2023/04/26 00:44:58;;;;;;;5.10;2.33;;;;;;;8.14;34.80;101469.78;5088302;28;20112;-79
2023/04/26 00:47:26;;;;;;;4.57;2.47;;;;;;;8.11;34.90;101464.50;5069106;28;20041;-78
2023/04/26 00:49:54;;;;;;;6.05;2.67;;;;;;;8.08;34.62;101467.47;5073053;28;20068;-79
2023/04/26 00:52:22;;;;;;;5.60;2.55;;;;;;;8.05;34.62;101468.53;5069638;28;20064;-78
2023/04/26 00:54:50;;;;;;;5.30;2.60;;;;;;;8.02;34.71;101465.13;5089496;28;20040;-78
2023/04/26 00:57:18;;;;;;;5.70;2.70;;;;;;;7.99;34.99;101463.50;5067847;28;20110;-78
2023/04/26 00:59:46;;;;;;;5.40;2.72;;;;;;;7.94;34.83;101460.19;5086947;28;20063;-78
2023/04/26 01:02:18;;;;;;;6.22;2.63;;;;;;;7.91;34.87;101461.28;5062488;28;20427;-79
2023/04/26 01:04:47;;;;;;;6.22;3.10;;;;;;;7.86;34.57;101463.44;5071274;28;20067;-78
2023/04/26 01:07:14;;;;;;;5.60;2.90;;;;;;;7.83;35.08;101471.84;5072016;28;20098;-79
2023/04/26 01:09:44;;;;;;;6.07;3.40;;;;;;;7.81;34.92;101467.44;5071294;28;20044;-79
2023/04/26 01:12:13;;;;;;;5.32;2.80;;;;;;;7.78;34.92;101473.09;5061851;28;20067;-79
2023/04/26 01:14:41;;;;;;;6.07;3.15;;;;;;;7.74;35.19;101472.44;5070292;28;20102;-78
2023/04/26 01:17:09;;;;;;;6.72;2.90;;;;;;;7.71;34.96;101475.34;5059670;28;20049;-80
2023/04/26 01:19:48;;;;;;;4.53;2.58;;;;;;;7.72;35.56;101478.94;5066834;28;20528;-78
2023/04/26 01:22:16;;;;;;;4.53;2.53;;;;;;;7.64;35.17;101476.72;5068305;28;20049;-79
2023/04/26 01:24:49;;;;;;;5.22;2.80;;;;;;;7.65;35.51;101472.16;5075382;28;20040;-79
2023/04/26 01:27:17;;;;;;;5.63;2.95;;;;;;;7.59;35.42;101481.63;5072272;28;20120;-78
2023/04/26 01:29:47;;;;;;;4.30;2.63;;;;;;;7.57;35.59;101481.72;5080112;28;20036;-78
2023/04/26 01:32:15;;;;;;;4.55;2.70;;;;;;;7.55;35.33;101480.06;5068615;28;20045;-79
2023/04/26 01:34:43;;;;;;;6.00;3.00;;;;;;;7.53;35.65;101482.00;5068699;28;20407;-78
2023/04/26 01:37:11;;;;;;;6.72;2.80;;;;;;;7.51;35.34;101481.25;5073364;28;20132;-79
2023/04/26 01:39:39;;;;;;;6.30;2.60;;;;;;;7.49;35.81;101484.06;5077692;28;20044;-79
2023/04/26 01:42:08;;;;;;;5.43;2.90;;;;;;;7.48;35.68;101482.31;5074509;28;20072;-79
2023/04/26 01:44:36;;;;;;;5.25;2.90;;;;;;;7.45;35.56;101473.44;5081932;28;20028;-79
2023/04/26 01:47:04;;;;;;;5.22;3.08;;;;;;;7.44;35.37;101479.88;5072817;28;20056;-79
2023/04/26 01:49:32;;;;;;;6.53;2.90;;;;;;;7.42;35.40;101484.56;5094664;28;20056;-79
2023/04/26 01:52:01;;;;;;;5.47;2.90;;;;;;;7.38;35.34;101466.66;5075692;28;20040;-79
2023/04/26 01:54:30;;;;;;;5.93;3.17;;;;;;;7.35;36.04;101473.19;5092916;28;20044;-78
2023/04/26 01:57:00;;;;;;;5.07;3.03;;;;;;;7.33;35.64;101471.53;5074354;28;20098;-79
2023/04/26 01:59:29;;;;;;;4.85;2.60;;;;;;;7.33;36.01;101471.53;5076452;28;20619;-79
2023/04/26 02:01:58;;;;;;;5.43;3.00;;;;;;;7.28;35.76;101470.94;5072379;28;20060;-79
2023/04/26 02:04:27;;;;;;;4.43;2.53;;;;;;;7.27;35.97;101480.09;5073226;28;20092;-78
2023/04/26 02:06:56;;;;;;;4.85;2.78;;;;;;;7.25;35.46;101480.19;5073343;28;20514;-79
2023/04/26 02:09:24;;;;;;;5.65;2.67;;;;;;;7.23;35.81;101478.53;5073089;28;20045;-79
2023/04/26 02:11:51;;;;;;;4.97;2.55;;;;;;;7.22;36.20;101477.66;5074552;28;20166;-78
2023/04/26 02:14:19;;;;;;;5.07;2.60;;;;;;;7.20;35.92;101485.03;5072786;28;20411;-79
2023/04/26 02:16:50;;;;;;;5.30;2.67;;;;;;;7.19;36.10;101476.00;5076411;28;20048;-79
2023/04/26 02:19:21;;;;;;;6.07;2.80;;;;;;;7.16;35.97;101478.94;5077443;28;20055;-79
2023/04/26 02:21:53;;;;;;;6.63;3.10;;;;;;;7.16;36.05;101481.66;5073294;28;20032;-79
2023/04/26 02:24:22;;;;;;;5.57;3.22;;;;;;;7.13;35.95;101483.69;5074765;28;20723;-79
2023/04/26 02:26:51;;;;;;;6.53;3.17;;;;;;;7.10;35.79;101479.34;5073851;28;20549;-79
2023/04/26 02:29:20;;;;;;;5.68;3.08;;;;;;;7.10;36.03;101487.50;5076293;28;20040;-79
2023/04/26 02:32:04;;;;;;;6.28;3.22;;;;;;;7.06;36.20;101485.03;5069225;28;20060;-79
2023/04/26 02:34:32;;;;;;;6.45;3.33;;;;;;;7.05;36.07;101478.72;5079063;28;20051;-79
2023/04/26 02:37:00;;;;;;;6.88;3.00;;;;;;;7.03;36.04;101482.50;5079648;28;20040;-79
2023/04/26 02:39:28;;;;;;;7.03;3.03;;;;;;;7.00;36.18;101475.44;5068144;28;20067;-79
2023/04/26 02:41:56;;;;;;;5.35;2.55;;;;;;;6.97;35.92;101467.44;5087996;28;20045;-79
2023/04/26 02:44:24;;;;;;;5.88;3.10;;;;;;;6.94;35.78;101473.06;5087456;28;20136;-80
2023/04/26 02:46:52;;;;;;;5.45;2.90;;;;;;;6.90;35.81;101473.38;5066960;28;20045;-79
2023/04/26 02:49:22;;;;;;;5.63;2.55;;;;;;;6.87;35.97;101463.53;5068389;28;20052;-79
2023/04/26 02:51:50;;;;;;;4.97;2.60;;;;;;;6.83;36.20;101470.16;5073114;28;20040;-79
2023/04/26 02:54:18;;;;;;;7.45;2.60;;;;;;;6.81;36.00;101472.09;5075769;28;20040;-79
2023/04/26 02:56:46;;;;;;;6.97;3.17;;;;;;;6.76;36.00;101475.13;5072989;28;20044;-80
2023/04/26 02:59:14;;;;;;;4.93;2.70;;;;;;;6.76;36.17;101476.97;5075594;28;20044;-79
2023/04/26 03:01:42;;;;;;;4.75;2.80;;;;;;;6.73;36.32;101469.81;5092561;28;20056;-79
2023/04/26 03:04:10;;;;;;;5.72;2.85;;;;;;;6.72;36.33;101459.03;5091847;28;20048;-80
2023/04/26 03:06:52;;;;;;;6.25;2.67;;;;;;;6.72;36.42;101473.50;5031384;28;20040;-80
2023/04/26 03:09:21;;;;;;;5.30;2.65;;;;;;;6.68;36.41;101474.69;5069463;28;20086;-81
2023/04/26 03:11:48;;;;;;;5.63;2.97;;;;;;;6.66;36.18;101468.47;5088624;28;20060;-80
2023/04/26 03:14:17;;;;;;;6.22;3.10;;;;;;;6.64;36.24;101469.50;5072941;28;20071;-80
2023/04/26 03:16:47;;;;;;;4.85;2.75;;;;;;;6.62;36.46;101466.00;5065750;28;20585;-80
2023/04/26 03:19:15;;;;;;;7.07;2.90;;;;;;;6.60;36.24;101471.56;5071393;28;20074;-80
2023/04/26 03:21:44;;;;;;;4.85;2.78;;;;;;;6.59;36.24;101469.81;5071289;28;20495;-80
2023/04/26 03:24:12;;;;;;;5.70;3.20;;;;;;;6.57;36.47;101463.56;5070806;28;20045;-80
2023/04/26 03:26:40;;;;;;;5.85;3.00;;;;;;;6.55;36.40;101462.78;5068151;28;20044;-81
2023/04/26 03:29:08;;;;;;;5.63;2.72;;;;;;;6.53;36.53;101456.56;5071124;28;20140;-80
2023/04/26 03:31:36;;;;;;;6.32;2.90;;;;;;;6.50;36.71;101453.16;5072136;28;20051;-81
2023/04/26 03:34:05;;;;;;;4.65;2.70;;;;;;;6.48;36.56;101455.97;5094353;28;20045;-80
2023/04/26 03:36:33;;;;;;;6.72;3.30;;;;;;;6.45;36.70;101457.03;5066629;28;20601;-80
2023/04/26 03:39:04;;;;;;;6.18;3.30;;;;;;;6.44;36.55;101458.03;5076602;28;20056;-80
2023/04/26 03:41:35;;;;;;;6.97;3.10;;;;;;;6.41;36.76;101457.31;5072801;28;20056;-79
2023/04/26 03:44:07;;;;;;;5.43;3.28;;;;;;;6.36;36.69;101454.91;5077124;28;20041;-80
2023/04/26 03:46:35;;;;;;;7.07;3.33;;;;;;;6.36;36.56;101456.75;5076097;28;20602;-80
2023/04/26 03:49:04;;;;;;;6.28;3.60;;;;;;;6.35;36.75;101452.28;5068349;28;20511;-80
2023/04/26 03:51:32;;;;;;;5.57;3.15;;;;;;;6.34;36.90;101453.22;5074730;28;20463;-81
2023/04/26 03:54:00;;;;;;;6.30;3.10;;;;;;;6.33;36.95;101462.34;5092106;28;20525;-81
2023/04/26 03:56:30;;;;;;;7.20;3.35;;;;;;;6.32;36.96;101455.16;5064183;28;20048;-82
2023/04/26 03:59:00;;;;;;;5.70;2.90;;;;;;;6.31;37.07;101459.72;5065118;28;20060;-81
2023/04/26 04:01:28;;;;;;;6.03;3.13;;;;;;;6.29;36.80;101458.06;5083466;23;20415;-80
2023/04/26 04:03:56;;;;;;;6.53;2.85;;;;;;;6.27;36.96;101457.28;5061648;28;20060;-80
2023/04/26 04:06:25;;;;;;;5.13;2.67;;;;;;;6.26;37.13;101466.41;5064701;28;20128;-81
2023/04/26 04:08:53;;;;;;;5.82;2.90;;;;;;;6.24;36.75;101462.91;5073625;28;20048;-79
2023/04/26 04:11:22;;;;;;;6.38;3.30;;;;;;;6.23;36.91;101464.75;5069052;28;20450;-80
2023/04/26 04:13:52;;;;;;;5.45;3.00;;;;;;;6.23;36.90;101464.75;5089171;28;20036;-79
2023/04/26 04:16:20;;;;;;;6.40;3.15;;;;;;;6.21;36.95;101468.50;5072314;28;20048;-79
2023/04/26 04:18:48;;;;;;;5.22;3.00;;;;;;;6.19;37.02;101460.47;5085106;28;20052;-78
2023/04/26 04:21:17;;;;;;;5.25;2.80;;;;;;;6.20;37.13;101461.34;5072616;28;20108;-80
2023/04/26 04:23:45;;;;;;;4.95;2.65;;;;;;;6.19;37.31;101470.47;5070817;28;20041;-77
2023/04/26 04:26:13;;;;;;;5.00;2.50;;;;;;;6.17;37.13;101472.41;5070295;28;20053;-77
2023/04/26 04:28:41;;;;;;;4.47;2.50;;;;;;;6.15;37.31;101471.59;5064908;28;20075;-78
2023/04/26 04:31:10;;;;;;;6.88;2.80;;;;;;;6.14;37.22;101478.88;5062666;28;20052;-78
2023/04/26 04:33:38;;;;;;;5.22;2.70;;;;;;;6.10;37.41;101477.31;5051205;28;20106;-79
2023/04/26 04:36:08;;;;;;;5.07;2.55;;;;;;;6.10;37.32;101477.31;5053632;28;20408;-78
2023/04/26 04:38:36;;;;;;;4.97;2.75;;;;;;;6.06;37.35;101476.63;5071664;28;20101;-78
2023/04/26 04:41:07;;;;;;;5.10;2.97;;;;;;;6.05;37.35;101485.72;5066319;28;20096;-78
2023/04/26 04:43:36;;;;;;;6.75;2.95;;;;;;;6.04;37.36;101478.53;5053553;28;20051;-78
2023/04/26 04:46:05;;;;;;;5.90;3.05;;;;;;;6.03;37.49;101482.25;5052042;28;20091;-79
2023/04/26 04:48:37;;;;;;;5.22;3.10;;;;;;;6.04;37.57;101488.53;5072344;28;20080;-79
2023/04/26 04:51:05;;;;;;;5.68;2.78;;;;;;;6.01;37.71;101486.00;5044205;28;20056;-78
2023/04/26 04:53:33;;;;;;;5.70;2.67;;;;;;;6.02;37.59;101487.78;5058454;28;20463;-79
2023/04/26 04:56:01;;;;;;;5.93;2.75;;;;;;;6.01;37.82;101489.59;5053307;28;20068;-78
2023/04/26 04:58:30;;;;;;;5.45;2.70;;;;;;;5.99;37.63;101480.66;5055821;28;20380;-80
2023/04/26 05:00:59;;;;;;;5.00;2.60;;;;;;;6.01;37.29;101486.00;5047605;28;20061;-79
2023/04/26 05:03:32;;;;;;;5.63;2.60;;;;;;;6.02;37.71;101485.94;5065156;28;20077;-79
2023/04/26 05:06:02;;;;;;;5.53;2.78;;;;;;;6.03;37.75;101489.53;5057572;28;20048;-79
2023/04/26 05:08:30;;;;;;;5.10;3.00;;;;;;;6.00;37.71;101493.28;5091531;28;20075;-80
2023/04/26 05:11:02;;;;;;;4.75;2.60;;;;;;;6.02;37.72;101501.34;5090453;28;20176;-79
2023/04/26 05:13:30;;;;;;;5.00;2.60;;;;;;;6.01;37.85;101505.91;5078591;28;20044;-79
2023/04/26 05:15:57;;;;;;;4.78;2.67;;;;;;;6.01;37.87;101499.59;5076833;28;20045;-78
2023/04/26 05:18:25;;;;;;;5.38;2.85;;;;;;;6.00;38.01;101515.03;5078106;28;20076;-77
2023/04/26 05:20:53;;;;;;;6.35;3.05;;;;;;;6.01;38.26;101515.91;5068144;28;20044;-79
2023/04/26 05:23:22;;;;;;;5.25;2.80;;;;;;;6.04;38.33;101508.44;5066243;28;20052;-78
2023/04/26 05:25:51;;;;;;;6.28;2.95;;;;;;;6.04;38.37;101519.28;5079805;28;20053;-79
2023/04/26 05:28:37;;;;;;;6.43;2.90;;;;;;;6.07;38.41;101527.28;5054912;28;20139;-79
2023/04/26 05:31:23;;;;;;;6.50;3.25;;;;;;;6.12;38.82;101523.44;5052828;28;20063;-79
2023/04/26 05:34:10;;;;;;;5.57;3.15;;;;;;;6.15;38.90;101523.25;5053101;28;20072;-78
2023/04/26 05:36:39;;;;;;;6.18;2.95;;;;;;;6.21;38.84;101525.59;5061619;28;20045;-78
2023/04/26 05:39:09;;;;;;;8.15;3.42;;;;;;;6.28;39.01;101524.28;5092123;28;20048;-78
2023/04/26 05:41:37;;;;;;;6.72;3.20;;;;;;;6.33;39.08;101530.31;5059276;28;20574;-78
2023/04/26 05:44:05;;;;;;;4.38;3.15;;;;;;;6.40;38.79;101523.53;5064940;28;20091;-78
2023/04/26 05:46:34;;;;;;;6.50;3.53;;;;;;;6.47;39.27;101526.75;5053927;28;20052;-77
2023/04/26 05:49:02;;;;;;;6.57;3.70;;;;;;;6.53;39.09;101532.72;5051510;28;20512;-79
2023/04/26 05:51:29;;;;;;;6.88;3.50;;;;;;;6.59;39.04;101532.34;5051516;28;20052;-78
2023/04/26 05:53:58;;;;;;;6.60;3.65;;;;;;;6.65;39.26;101531.97;5053015;28;20051;-77
2023/04/26 05:56:27;;;;;;;7.03;3.65;;;;;;;6.71;39.00;101536.16;5056277;28;20049;-81
2023/04/26 05:58:55;;;;;;;5.95;3.92;;;;;;;6.75;39.24;101537.78;5056818;28;20036;-79
2023/04/26 06:01:23;;;;;;;6.63;3.60;;;;;;;6.80;39.16;101535.63;5057692;28;20045;-81
2023/04/26 06:03:51;;;;;;;9.73;4.82;;;;;;;6.85;39.55;101532.66;5061117;28;20051;-78
2023/04/26 06:06:27;;;;;;;6.82;3.67;;;;;;;6.87;39.32;101536.13;5066188;28;20495;-82
2023/04/26 06:08:55;;;;;;;5.88;3.70;;;;;;;6.97;39.55;101546.38;5069956;28;20507;-78
2023/04/26 06:11:23;;;;;;;6.45;3.70;;;;;;;7.05;39.63;101538.59;5070950;28;20109;-78
2023/04/26 06:13:54;;;;;;;6.82;4.05;;;;;;;7.15;39.69;101552.53;5071226;28;20048;-78
2023/04/26 06:16:22;;;;;;;6.90;4.15;;;;;;;7.26;39.71;101546.41;5069070;28;20052;-79
2023/04/26 06:18:50;;;;;;;8.50;4.90;;;;;;;7.34;39.61;101544.09;5067572;28;20059;-81
2023/04/26 06:21:18;;;;;;;9.02;4.35;;;;;;;7.43;39.61;101543.50;5066698;28;21165;-79
2023/04/26 06:23:46;;;;;;;8.88;4.80;;;;;;;7.50;39.58;101544.84;5073356;28;20036;-81
2023/04/26 06:26:17;;;;;;;6.75;4.25;;;;;;;7.54;39.87;101544.56;5072111;28;20450;-80
2023/04/26 06:28:45;;;;;;;7.60;5.40;;;;;;;7.62;39.53;101552.22;5072412;28;20055;-81
2023/04/26 06:31:15;;;;;;;6.75;4.63;;;;;;;7.70;39.29;101555.34;5060717;28;20041;-81
2023/04/26 06:33:43;;;;;;;8.27;5.13;;;;;;;7.76;39.35;101552.22;5040232;28;20459;-80
2023/04/26 06:36:12;;;;;;;8.20;5.40;;;;;;;7.83;39.19;101548.13;5044430;28;20333;-80
2023/04/26 06:38:41;;;;;;;8.85;5.40;;;;;;;7.88;39.26;101553.25;5041559;28;20045;-79
2023/04/26 06:41:09;;;;;;;8.52;5.13;;;;;;;7.94;39.08;101555.59;5044587;28;20059;-81
2023/04/26 06:43:37;;;;;;;8.80;5.65;;;;;;;8.00;39.23;101552.47;5041760;28;20052;-79
2023/04/26 06:46:07;;;;;;;7.43;4.38;;;;;;;8.08;39.15;101560.16;5060666;28;20040;-79
2023/04/26 06:48:36;;;;;;;9.85;5.63;;;;;;;8.14;39.09;101552.47;5045656;28;20068;-79
2023/04/26 06:51:08;;;;;;;10.13;5.95;;;;;;;8.23;39.16;101554.59;5066123;28;20111;-81
2023/04/26 06:53:36;;;;;;;10.35;6.10;;;;;;;8.26;39.35;101545.28;5070151;28;20459;-79
2023/04/26 06:56:04;;;;;;;9.27;5.18;;;;;;;8.33;39.06;101541.22;5050432;28;20045;-82
2023/04/26 06:58:32;;;;;;;9.13;5.53;;;;;;;8.44;38.99;101548.66;5071163;28;20051;-80
2023/04/26 07:01:00;;;;;;;9.98;5.70;;;;;;;8.49;39.29;101547.38;5061018;28;20120;-80
2023/04/26 07:03:29;;;;;;;10.23;5.28;;;;;;;8.58;38.97;101546.75;5056836;28;20120;-77
2023/04/26 07:05:59;;;;;;;10.43;5.72;;;;;;;8.70;39.00;101558.66;5048247;28;21440;-80
2023/04/26 07:08:27;;;;;;;8.90;5.05;;;;;;;8.76;38.88;101558.22;5042647;28;20097;-77
2023/04/26 07:10:55;;;;;;;9.10;4.95;;;;;;;8.84;38.82;101557.69;5039932;28;20500;-79
2023/04/26 07:13:22;;;;;;;8.52;4.85;;;;;;;8.88;38.79;101551.94;5051422;28;20582;-78
2023/04/26 07:15:51;;;;;;;10.48;5.25;;;;;;;8.98;38.37;101560.38;5047239;28;20098;-79
2023/04/26 07:18:18;;;;;;;11.48;5.78;;;;;;;9.02;38.49;101550.97;5079290;28;20087;-79
2023/04/26 07:20:47;;;;;;;7.45;5.13;;;;;;;9.07;38.31;101554.25;5047957;28;20041;-79
2023/04/26 07:23:16;;;;;;;7.57;4.97;;;;;;;9.12;38.17;101552.06;5048785;28;20095;-79
2023/04/26 07:25:44;;;;;;;6.90;4.65;;;;;;;9.13;38.14;101556.56;5054824;28;20503;-79
2023/04/26 07:28:12;;;;;;;8.18;5.28;;;;;;;9.18;38.00;101550.75;5064998;28;20045;-78
2023/04/26 07:30:40;;;;;;;8.35;5.38;;;;;;;9.20;37.71;101551.53;5077516;28;20466;-78
2023/04/26 07:33:08;;;;;;;7.05;5.18;;;;;;;9.24;37.42;101550.34;5063440;28;20099;-79
2023/04/26 07:35:36;;;;;;;10.57;5.70;;;;;;;9.27;37.67;101548.25;5069132;28;20041;-78
2023/04/26 07:38:04;;;;;;;8.43;4.30;;;;;;;9.29;37.37;101545.41;5073493;28;20052;-76
2023/04/26 07:40:33;;;;;;;7.97;4.68;;;;;;;9.34;37.44;101551.41;5074449;28;20051;-77
2023/04/26 07:43:01;;;;;;;8.43;4.80;;;;;;;9.35;37.35;101550.44;5061530;28;20611;-79
2023/04/26 07:45:28;;;;;;;9.07;4.95;;;;;;;9.36;37.21;101549.44;5054655;28;20071;-78
2023/04/26 07:47:56;;;;;;;9.45;5.20;;;;;;;9.40;37.25;101554.63;5053531;28;20072;-79
2023/04/26 07:50:24;;;;;;;9.18;5.50;;;;;;;9.43;37.46;101554.38;5054279;28;20041;-78
2023/04/26 07:52:52;;;;;;;7.97;4.88;;;;;;;9.44;37.10;101547.94;5088510;28;20049;-79
2023/04/26 07:55:20;;;;;;;7.95;4.57;;;;;;;9.48;37.03;101545.88;5086664;28;20047;-79
2023/04/26 07:57:49;;;;;;;8.85;4.63;;;;;;;9.53;37.19;101542.81;5075251;28;20076;-78
2023/04/26 08:00:19;;;;;;;6.68;4.47;;;;;;;9.56;36.96;101548.06;5085650;28;20113;-79
2023/04/26 08:02:46;;;;;;;7.43;4.22;;;;;;;9.59;37.37;101551.44;5053920;28;20516;-78
2023/04/26 08:05:15;;;;;;;8.20;4.38;;;;;;;9.63;37.19;101547.50;5057299;28;20045;-79
2023/04/26 08:07:43;;;;;;;5.68;3.88;;;;;;;9.64;36.78;101541.06;5047246;28;20072;-78
2023/04/26 08:10:11;;;;;;;8.00;4.45;;;;;;;9.69;36.66;101541.56;5058933;28;20049;-79
2023/04/26 08:12:40;;;;;;;8.45;4.10;;;;;;;9.71;36.58;101538.75;5053924;28;20103;-78
2023/04/26 08:15:10;;;;;;;9.63;4.15;;;;;;;9.74;36.35;101546.72;5046571;28;20045;-78
2023/04/26 08:17:38;;;;;;;7.47;4.07;;;;;;;9.74;36.21;101539.38;5054663;28;20049;-77
2023/04/26 08:20:08;;;;;;;6.32;3.70;;;;;;;9.75;36.09;101541.13;5060575;28;20112;-77
2023/04/26 08:22:36;;;;;;;6.93;3.58;;;;;;;9.73;35.92;101540.38;5065618;28;20122;-78
2023/04/26 08:25:05;;;;;;;6.85;3.40;;;;;;;9.77;36.13;101546.47;5047760;28;20057;-77
2023/04/26 08:27:34;;;;;;;7.68;3.47;;;;;;;9.78;36.11;101545.50;5042612;28;20132;-77
2023/04/26 08:30:02;;;;;;;7.93;3.20;;;;;;;9.78;35.90;101543.63;5048516;28;20571;-78
2023/04/26 08:32:32;;;;;;;5.72;3.00;;;;;;;9.81;36.00;101537.09;5059797;28;20084;-77
2023/04/26 08:35:00;;;;;;;6.00;3.10;;;;;;;9.81;35.90;101540.69;5043588;28;20111;-78
2023/04/26 08:37:28;;;;;;;5.82;3.10;;;;;;;9.82;35.68;101541.56;5055901;28;20063;-76
2023/04/26 08:39:56;;;;;;;5.97;2.80;;;;;;;9.82;35.85;101539.69;5051059;28;20041;-77
2023/04/26 08:42:27;;;;;;;5.70;2.88;;;;;;;9.87;35.60;101543.94;5070053;28;20068;-77
2023/04/26 08:44:55;;;;;;;4.28;2.60;;;;;;;9.87;35.66;101544.81;5051184;28;20063;-77
2023/04/26 08:47:30;;;;;;;4.20;2.15;;;;;;;9.92;35.00;101548.06;5047507;28;20053;-77
2023/04/26 08:50:03;;;;;;;4.88;2.90;;;;;;;9.93;35.32;101546.22;5042581;28;20103;-77
2023/04/26 08:52:32;;;;;;;4.72;2.58;;;;;;;9.94;35.18;101548.84;5049275;28;20105;-77
2023/04/26 08:55:00;;;;;;;4.95;2.83;;;;;;;9.94;35.37;101546.09;5054293;28;20484;-77
2023/04/26 08:57:31;;;;;;;4.63;2.50;;;;;;;9.98;34.84;101546.78;5072618;28;20456;-77
2023/04/26 09:00:00;;;;;;;4.65;2.55;;;;;;;9.99;35.08;101556.72;5046328;28;20374;-78
2023/04/26 09:02:28;;;;;;;4.00;2.30;;;;;;;9.99;35.22;101545.78;5073930;28;20136;-77
2023/04/26 09:04:57;;;;;;;5.15;2.47;;;;;;;10.01;34.77;101549.25;5049750;28;20094;-77
2023/04/26 09:07:31;;;;;;;4.25;2.30;;;;;;;10.05;34.38;101553.53;5065463;28;20049;-78
2023/04/26 09:10:00;;;;;;;5.22;2.00;;;;;;;10.07;35.04;101551.56;5067782;28;20128;-79
2023/04/26 09:12:28;;;;;;;4.82;2.00;;;;;;;10.08;34.84;101554.16;5061357;28;20084;-78
2023/04/26 09:14:56;;;;;;;4.82;2.10;;;;;;;10.12;35.07;101550.22;5066978;28;20140;-77
2023/04/26 09:17:25;;;;;;;5.00;2.38;;;;;;;10.14;34.57;101556.47;5063356;28;20547;-77
2023/04/26 09:19:54;;;;;;;5.28;2.10;;;;;;;10.15;34.46;101552.69;5062543;28;20071;-79
2023/04/26 09:22:31;;;;;;;6.00;2.30;;;;;;;10.19;33.82;101556.09;5044191;28;20049;-78
2023/04/26 09:25:00;;;;;;;4.78;1.85;;;;;;;10.16;34.52;101546.25;5050802;28;20037;-78
2023/04/26 09:27:36;;;;;;;3.88;1.92;;;;;;;10.19;33.60;101546.03;5059092;28;20059;-78
2023/04/26 09:30:09;;;;;;;4.03;1.83;;;;;;;10.19;34.05;101545.16;5070287;28;20044;-79
2023/04/26 09:32:43;;;;;;;;;;;;;;;9.95;34.46;101536.06;5076247;28;20097;-79
2023/04/26 09:35:21;;;;;;;3.35;1.50;;;;;;;10.19;33.14;101534.22;5081670;28;19927;-78
2023/04/26 09:37:55;;;;;;;3.78;1.60;;;;;;;10.23;33.12;101541.22;5059165;28;20064;-78
2023/04/26 09:40:29;;;;;;;4.30;1.83;;;;;;;10.23;34.33;101533.84;5069127;28;20059;-77
2023/04/26 09:42:58;;;;;;;4.95;1.77;;;;;;;10.28;33.75;101532.66;5041849;28;20057;-78
2023/04/26 09:45:28;;;;;;;4.32;1.73;;;;;;;10.31;33.83;101533.31;5045293;28;20056;-80
2023/04/26 09:48:12;;;;;;;3.30;1.60;;;;;;;10.34;33.45;101534.91;5036130;28;20500;-79
2023/04/26 09:50:40;;;;;;;3.13;1.60;;;;;;;10.38;33.51;101525.50;5041860;28;20045;-80
2023/04/26 09:53:09;;;;;;;3.38;1.65;;;;;;;10.41;33.33;101520.63;5047554;28;20044;-80
2023/04/26 09:55:38;;;;;;;4.75;1.85;;;;;;;10.44;33.53;101523.16;5047263;28;20049;-80
2023/04/26 09:58:11;;;;;;;2.92;1.83;;;;;;;10.47;32.82;101519.31;5052020;28;20060;-79
2023/04/26 10:00:42;;;;;;;2.70;1.58;;;;;;;10.47;33.60;101511.97;5057080;28;20041;-78
2023/04/26 10:03:12;;;;;;;2.80;1.48;;;;;;;10.50;33.61;101522.69;5046947;28;20542;-77
2023/04/26 10:05:40;;;;;;;4.05;1.80;;;;;;;10.50;33.54;101525.41;5055832;28;20076;-78
2023/04/26 10:08:10;;;;;;;4.03;1.90;;;;;;;10.53;33.27;101517.00;5064067;28;20044;-78
2023/04/26 10:10:38;;;;;;;4.53;1.88;;;;;;;10.53;33.43;101517.00;5069216;28;20492;-78
2023/04/26 10:13:06;;;;;;;4.00;1.95;;;;;;;10.55;33.43;101511.41;5051198;28;20599;-79
2023/04/26 10:15:36;;;;;;;4.18;2.00;;;;;;;10.57;33.01;101520.38;5055594;28;20057;-78
2023/04/26 10:18:03;;;;;;;5.60;2.08;;;;;;;10.55;32.85;101515.03;5072992;28;20520;-79
2023/04/26 10:20:32;;;;;;;4.78;2.42;;;;;;;10.56;32.86;101518.66;5068101;28;20041;-80
2023/04/26 10:23:02;;;;;;;5.50;2.22;;;;;;;10.55;33.19;101516.91;5071301;28;20040;-79
2023/04/26 10:25:39;;;;;;;3.45;1.95;;;;;;;10.58;32.03;101512.03;5063870;28;20508;-79
2023/04/26 10:28:07;;;;;;;5.13;2.00;;;;;;;10.53;32.45;101510.63;5076702;28;20053;-80
2023/04/26 10:30:54;;;;;;;3.88;1.98;;;;;;;10.55;31.57;101514.16;5070251;28;20099;-79
2023/04/26 10:33:23;;;;;;;3.70;1.85;;;;;;;10.52;32.93;101503.41;5049365;28;20139;-79
2023/04/26 10:36:11;;;;;;;3.53;1.60;;;;;;;10.55;31.77;101501.34;5053324;28;20120;-79
2023/04/26 10:38:41;;;;;;;3.45;1.70;;;;;;;10.58;32.65;101509.31;5075901;28;20559;-79
2023/04/26 10:41:31;;;;;;;3.65;1.73;;;;;;;10.61;32.02;101519.16;5073323;28;20056;-79
2023/04/26 10:44:01;;;;;;;3.45;1.70;;;;;;;10.63;32.65;101513.56;5071416;28;20037;-79
2023/04/26 10:46:40;;;;;;;5.28;2.00;;;;;;;10.68;31.65;101514.06;5085879;28;20060;-79
2023/04/26 10:49:24;;;;;;;3.72;1.90;;;;;;;10.68;31.77;101511.34;5071672;28;20045;-80
2023/04/26 10:52:11;;;;;;;4.25;2.00;;;;;;;10.69;31.82;101513.09;5064542;28;20044;-78
2023/04/26 10:55:01;;;;;;;3.53;1.85;;;;;;;10.67;31.74;101509.59;5055105;28;20045;-78
2023/04/26 10:57:50;;;;;;;3.35;1.60;;;;;;;10.69;31.92;101505.75;5054515;28;20048;-78
2023/04/26 11:00:26;;;;;;;5.43;2.05;;;;;;;10.71;32.59;101505.63;5073369;28;20606;-79
2023/04/26 11:03:11;;;;;;;3.92;1.77;;;;;;;10.74;31.50;101502.63;5063154;28;20144;-79
2023/04/26 11:05:53;;;;;;;4.88;2.00;;;;;;;10.75;31.65;101499.78;5048202;28;20044;-79
2023/04/26 11:08:25;;;;;;;5.55;2.17;;;;;;;10.77;32.13;101496.94;5054477;28;20059;-79
2023/04/26 11:10:59;;;;;;;5.32;2.88;;;;;;;10.81;31.66;101509.41;5039746;23;20054;-83
2023/04/26 11:13:30;;;;;;;4.25;1.67;;;;;;;10.81;31.46;101501.19;5008774;28;20131;-82
2023/04/26 11:16:10;;;;;;;4.32;2.00;;;;;;;10.85;31.13;101505.41;5015423;28;20060;-84
2023/04/26 11:18:40;;;;;;;3.50;1.67;;;;;;;10.84;31.75;101498.19;5025149;28;20093;-84
2023/04/26 11:21:16;;;;;;;3.33;1.70;;;;;;;10.83;31.67;101493.69;5027889;28;20060;-84
2023/04/26 11:23:55;;;;;;;5.10;2.38;;;;;;;10.88;31.62;101488.75;5031129;28;20129;-85
2023/04/26 11:26:24;;;;;;;3.40;1.80;;;;;;;10.86;32.08;101488.00;5046751;28;20049;-84
2023/04/26 11:28:56;;;;;;;5.82;2.33;;;;;;;10.88;31.66;101496.97;5023808;28;20042;-84
2023/04/26 11:31:24;;;;;;;3.92;2.00;;;;;;;10.88;32.06;101500.59;5041779;28;20045;-83
2023/04/26 11:33:52;;;;;;;3.63;1.80;;;;;;;10.89;31.46;101494.13;5029704;28;20057;-82
2023/04/26 11:36:23;;;;;;;4.18;2.08;;;;;;;10.91;31.44;101483.88;5018843;28;20100;-83
2023/04/26 11:38:57;;;;;;;4.18;1.90;;;;;;;10.90;31.46;101478.53;5028719;28;20507;-82
2023/04/26 11:41:27;;;;;;;5.03;2.10;;;;;;;10.91;31.59;101481.16;5014612;28;20052;-82
2023/04/26 11:43:59;;;;;;;4.43;2.13;;;;;;;10.96;30.95;101480.81;5049106;28;20743;-82